Time;durP1;ratioP1;P1;durP2;ratioP2;P2;SDS_P1;SDS_P2;PMS_P1;PMS_P2;Temp;Humidity;BMP_temperature;BMP_pressure;BME280_temperature;BME280_humidity;BME280_pressure;Samples;Min_cycle;Max_cycle;Signal;HPM_P1;HPM_P2
2024/01/20 00:01:31;;;;;;;1.83;1.67;;;1.10;99.90;;;;;;5033071;28;20041;-65
2024/01/20 00:03:57;;;;;;;2.10;1.90;;;1.10;99.90;;;;;;5015304;28;20097;-64
2024/01/20 00:06:23;;;;;;;2.03;1.80;;;1.10;99.90;;;;;;5033064;28;20453;-67
2024/01/20 00:08:48;;;;;;;3.05;1.98;;;1.10;99.90;;;;;;5033238;28;20509;-65
2024/01/20 00:11:14;;;;;;;2.67;1.98;;;1.10;99.90;;;;;;5032941;28;20076;-64
2024/01/20 00:13:40;;;;;;;2.40;2.08;;;1.10;99.90;;;;;;5032870;28;20073;-64
2024/01/20 00:16:05;;;;;;;2.90;2.00;;;1.10;99.90;;;;;;5033046;28;20033;-65
2024/01/20 00:18:31;;;;;;;2.50;2.00;;;1.10;99.90;;;;;;5015126;28;20052;-64
2024/01/20 00:20:56;;;;;;;2.38;2.15;;;1.20;99.90;;;;;;5033101;28;20477;-64
2024/01/20 00:23:22;;;;;;;1.88;1.50;;;1.20;99.90;;;;;;5033051;28;20029;-64
2024/01/20 00:25:48;;;;;;;2.13;1.92;;;1.10;99.90;;;;;;5033026;28;20573;-64
2024/01/20 00:28:14;;;;;;;1.73;1.60;;;1.10;99.90;;;;;;5015061;28;20132;-64
2024/01/20 00:30:39;;;;;;;2.95;2.13;;;1.20;99.90;;;;;;5032931;28;20113;-65
2024/01/20 00:33:08;;;;;;;2.00;1.80;;;1.10;99.90;;;;;;5015005;28;20041;-64
2024/01/20 00:35:36;;;;;;;3.13;2.30;;;1.60;99.90;;;;;;5032946;28;20040;-64
2024/01/20 00:38:04;;;;;;;2.55;2.33;;;1.10;99.90;;;;;;5032847;28;20088;-64
2024/01/20 00:40:30;;;;;;;2.33;1.92;;;1.20;99.90;;;;;;5014963;28;20378;-64
2024/01/20 00:42:56;;;;;;;3.58;2.30;;;1.10;99.90;;;;;;5032883;28;20079;-64
2024/01/20 00:45:21;;;;;;;2.08;1.88;;;1.10;99.90;;;;;;5015029;28;20029;-63
2024/01/20 00:47:47;;;;;;;2.90;1.73;;;1.10;99.90;;;;;;5014763;28;20073;-67
2024/01/20 00:50:26;;;;;;;3.42;2.10;;;1.10;99.90;;;;;;5032482;28;20052;-63
2024/01/20 00:52:52;;;;;;;2.97;2.35;;;1.10;99.90;;;;;;5014933;28;20042;-63
2024/01/20 00:55:17;;;;;;;6.65;3.08;;;1.10;99.90;;;;;;5032814;28;20095;-63
2024/01/20 00:57:44;;;;;;;3.85;2.35;;;1.10;99.90;;;;;;5014700;28;20053;-63
2024/01/20 01:00:10;;;;;;;2.28;2.05;;;1.10;99.90;;;;;;5032728;28;20560;-63
2024/01/20 01:02:37;;;;;;;3.17;2.05;;;1.10;99.90;;;;;;5032675;28;20397;-64
2024/01/20 01:05:03;;;;;;;1.80;1.70;;;1.00;99.90;;;;;;5032901;28;20446;-63
2024/01/20 01:07:29;;;;;;;2.13;2.03;;;1.00;99.90;;;;;;5036552;28;20087;-68
2024/01/20 01:09:55;;;;;;;2.17;1.98;;;1.40;99.90;;;;;;5036555;28;20041;-68
2024/01/20 01:12:20;;;;;;;2.60;2.40;;;0.90;99.90;;;;;;5036411;28;20041;-68
2024/01/20 01:14:46;;;;;;;2.10;1.90;;;1.30;99.90;;;;;;5018753;28;20045;-68
2024/01/20 01:17:12;;;;;;;2.35;2.15;;;0.80;99.90;;;;;;5036226;28;20038;-68
2024/01/20 01:19:38;;;;;;;2.50;2.30;;;0.80;99.90;;;;;;5018432;28;20049;-68
2024/01/20 01:22:03;;;;;;;2.45;2.25;;;0.80;99.90;;;;;;5036359;28;20038;-67
2024/01/20 01:24:29;;;;;;;4.07;2.65;;;0.70;99.90;;;;;;5018255;28;20580;-67
2024/01/20 01:26:55;;;;;;;2.50;2.30;;;0.60;99.90;;;;;;5035889;28;20460;-69
2024/01/20 01:29:20;;;;;;;2.80;2.60;;;0.60;99.90;;;;;;5036167;28;20045;-69
2024/01/20 01:31:46;;;;;;;3.03;2.75;;;1.10;99.90;;;;;;5036071;28;20392;-68
2024/01/20 01:34:12;;;;;;;2.20;2.05;;;0.50;99.90;;;;;;5018003;28;20489;-67
2024/01/20 01:36:37;;;;;;;3.70;2.78;;;0.50;99.90;;;;;;5018086;28;20128;-68
2024/01/20 01:39:03;;;;;;;3.15;2.60;;;0.50;99.90;;;;;;5035484;28;20383;-67
2024/01/20 01:41:29;;;;;;;3.50;2.40;;;0.50;99.90;;;;;;5017889;28;20040;-68
2024/01/20 01:44:08;;;;;;;2.72;2.53;;;0.40;99.90;;;;;;5035843;28;20382;-68
2024/01/20 01:46:47;;;;;;;4.07;2.67;;;0.40;99.90;;;;;;5035382;28;20448;-68
2024/01/20 01:49:22;;;;;;;2.50;2.30;;;0.40;99.90;;;;;;5035755;28;20041;-67
2024/01/20 01:51:50;;;;;;;2.72;2.53;;;0.40;99.90;;;;;;5035654;28;20063;-68
2024/01/20 01:54:17;;;;;;;2.13;2.03;;;0.30;99.90;;;;;;5017691;28;20037;-68
2024/01/20 01:56:46;;;;;;;2.67;2.42;;;0.30;99.90;;;;;;5017740;28;20479;-64
2024/01/20 01:59:12;;;;;;;3.20;2.95;;;0.30;99.90;;;;;;5017919;28;20120;-64
2024/01/20 02:01:37;;;;;;;4.10;3.35;;;0.30;99.90;;;;;;5035504;28;20030;-64
2024/01/20 02:04:03;;;;;;;3.90;3.45;;;0.30;99.90;;;;;;5035590;28;20037;-64
2024/01/20 02:06:29;;;;;;;3.10;2.78;;;0.30;99.90;;;;;;5035104;28;20037;-64
2024/01/20 02:08:55;;;;;;;3.22;2.92;;;0.30;99.90;;;;;;5035512;28;20094;-64
2024/01/20 02:11:21;;;;;;;2.90;2.28;;;0.30;99.90;;;;;;5035345;28;20528;-63
2024/01/20 02:13:47;;;;;;;3.05;2.78;;;0.30;99.90;;;;;;5035163;28;20045;-64
2024/01/20 02:16:12;;;;;;;3.13;2.83;;;0.40;99.90;;;;;;5035058;28;20041;-67
2024/01/20 02:18:38;;;;;;;3.53;2.95;;;0.30;99.90;;;;;;5034408;28;20045;-68
2024/01/20 02:21:07;;;;;;;3.10;2.83;;;0.30;99.90;;;;;;5035134;28;20037;-67
2024/01/20 02:23:40;;;;;;;3.83;3.38;;;0.30;99.90;;;;;;5035152;28;20535;-67
2024/01/20 02:26:06;;;;;;;3.78;2.80;;;0.40;99.90;;;;;;5034919;28;20033;-68
2024/01/20 02:28:32;;;;;;;3.90;3.60;;;0.30;99.90;;;;;;5017055;28;20509;-68
2024/01/20 02:30:58;;;;;;;3.95;3.25;;;0.30;99.90;;;;;;5017263;28;20436;-68
2024/01/20 02:33:23;;;;;;;3.85;3.38;;;0.30;99.90;;;;;;5034796;28;20146;-67
2024/01/20 02:35:49;;;;;;;3.38;3.08;;;0.30;99.90;;;;;;5016948;28;20045;-67
2024/01/20 02:38:15;;;;;;;4.00;3.42;;;0.30;99.90;;;;;;5034528;28;20046;-68
2024/01/20 02:40:40;;;;;;;3.50;3.17;;;0.40;99.90;;;;;;5000539;28;20478;-67
2024/01/20 02:43:06;;;;;;;3.53;3.20;;;1.00;99.90;;;;;;5016913;28;20622;-68
2024/01/20 02:45:32;;;;;;;3.40;3.10;;;0.30;99.90;;;;;;5034775;28;20046;-67
2024/01/20 02:47:58;;;;;;;3.65;3.08;;;0.30;99.90;;;;;;5016356;28;20576;-68
2024/01/20 02:50:31;;;;;;;3.85;3.42;;;0.40;99.90;;;;;;5034399;28;20400;-68
2024/01/20 02:52:57;;;;;;;3.97;3.58;;;0.40;99.90;;;;;;5033467;28;20087;-68
2024/01/20 02:55:22;;;;;;;4.00;3.60;;;0.40;99.90;;;;;;5016535;28;20046;-68
2024/01/20 02:57:48;;;;;;;3.15;2.83;;;0.40;99.90;;;;;;5016749;28;20049;-67
2024/01/20 03:00:14;;;;;;;4.15;3.80;;;0.40;99.90;;;;;;5034297;28;20057;-69
2024/01/20 03:02:40;;;;;;;4.03;3.35;;;0.50;99.90;;;;;;5016414;28;20044;-68
2024/01/20 03:05:06;;;;;;;4.25;3.47;;;0.60;99.90;;;;;;5034091;28;20045;-67
2024/01/20 03:07:31;;;;;;;3.45;3.15;;;0.50;99.90;;;;;;5034099;28;20049;-64
2024/01/20 03:09:57;;;;;;;3.80;3.42;;;0.50;99.90;;;;;;5034322;28;20149;-64
2024/01/20 03:12:22;;;;;;;3.72;3.42;;;0.50;99.90;;;;;;5033969;28;20041;-64
2024/01/20 03:14:48;;;;;;;3.78;3.35;;;0.50;99.90;;;;;;5016369;28;20037;-64
2024/01/20 03:17:14;;;;;;;4.10;3.63;;;0.50;99.90;;;;;;5034104;28;20033;-64
2024/01/20 03:19:39;;;;;;;4.22;3.83;;;0.50;99.90;;;;;;5034003;28;20099;-64
2024/01/20 03:22:05;;;;;;;4.45;3.50;;;0.50;99.90;;;;;;5034068;28;20034;-64
2024/01/20 03:24:30;;;;;;;4.13;3.83;;;0.50;99.90;;;;;;5033669;28;20041;-64
2024/01/20 03:26:56;;;;;;;4.93;3.35;;;0.40;99.90;;;;;;5033719;28;20045;-67
2024/01/20 03:29:22;;;;;;;4.00;3.60;;;0.50;99.90;;;;;;5033253;28;20041;-64
2024/01/20 03:31:48;;;;;;;4.18;3.78;;;0.50;99.90;;;;;;5033819;28;20049;-64
2024/01/20 03:34:13;;;;;;;3.58;3.28;;;0.50;99.90;;;;;;5033524;28;20042;-64
2024/01/20 03:36:39;;;;;;;4.10;3.67;;;1.00;99.90;;;;;;5033745;28;20049;-64
2024/01/20 03:39:05;;;;;;;3.70;3.40;;;0.50;99.90;;;;;;5033648;28;20045;-64
2024/01/20 03:41:31;;;;;;;4.20;3.83;;;0.50;99.90;;;;;;5015660;28;20489;-65
2024/01/20 03:43:57;;;;;;;4.50;4.00;;;0.50;99.90;;;;;;5033539;28;20063;-64
2024/01/20 03:46:25;;;;;;;3.90;3.60;;;0.50;99.90;;;;;;5015606;28;20049;-64
2024/01/20 03:48:58;;;;;;;3.72;3.38;;;0.50;99.90;;;;;;5032943;28;20064;-64
2024/01/20 03:51:26;;;;;;;4.25;3.60;;;0.50;99.90;;;;;;5033208;28;20045;-64
2024/01/20 03:53:53;;;;;;;3.70;3.30;;;0.40;99.90;;;;;;5033421;28;20056;-64
2024/01/20 03:56:18;;;;;;;5.22;3.97;;;0.40;99.90;;;;;;5033390;28;20041;-64
2024/01/20 03:58:44;;;;;;;4.43;4.03;;;0.50;99.90;;;;;;5033360;28;20430;-64
2024/01/20 04:01:10;;;;;;;3.83;3.40;;;0.50;99.90;;;;;;5033376;28;20113;-64
2024/01/20 04:03:35;;;;;;;5.07;3.97;;;0.50;99.90;;;;;;5033254;28;20041;-63
2024/01/20 04:06:03;;;;;;;3.60;3.30;;;0.50;99.90;;;;;;5033326;28;20386;-64
2024/01/20 04:08:29;;;;;;;4.47;3.70;;;0.50;99.90;;;;;;5033076;28;20041;-62
2024/01/20 04:10:54;;;;;;;3.88;3.47;;;0.50;99.90;;;;;;5015251;28;20133;-62
2024/01/20 04:13:20;;;;;;;4.05;3.42;;;0.90;99.90;;;;;;5033265;28;20073;-62
2024/01/20 04:15:46;;;;;;;4.25;3.85;;;0.50;99.90;;;;;;5015351;28;20046;-64
2024/01/20 04:18:11;;;;;;;4.47;3.83;;;0.40;99.90;;;;;;5032822;28;20038;-66
2024/01/20 04:20:37;;;;;;;4.40;4.00;;;0.40;99.90;;;;;;5032892;28;20049;-66
2024/01/20 04:23:03;;;;;;;3.95;3.60;;;0.40;99.90;;;;;;5032760;28;20149;-67
2024/01/20 04:25:29;;;;;;;4.40;3.92;;;0.80;99.90;;;;;;5032912;28;20075;-66
2024/01/20 04:27:55;;;;;;;4.28;3.88;;;0.40;99.90;;;;;;5032789;28;20056;-66
2024/01/20 04:30:20;;;;;;;3.45;3.15;;;0.30;99.90;;;;;;5032936;28;20041;-66
2024/01/20 04:32:46;;;;;;;3.58;3.28;;;0.30;99.90;;;;;;5033050;28;20378;-66
2024/01/20 04:35:11;;;;;;;3.92;3.63;;;0.30;99.90;;;;;;5032772;28;20034;-66
2024/01/20 04:37:38;;;;;;;3.58;3.15;;;0.30;99.90;;;;;;5032955;28;20042;-68
2024/01/20 04:40:04;;;;;;;4.00;3.60;;;0.20;99.90;;;;;;5033444;28;20400;-68
2024/01/20 04:42:30;;;;;;;3.95;3.65;;;0.20;99.90;;;;;;5036985;28;20033;-67
2024/01/20 04:44:56;;;;;;;5.18;4.15;;;0.20;99.90;;;;;;5036754;28;20370;-67
2024/01/20 04:47:28;;;;;;;5.53;4.45;;;0.20;99.90;;;;;;5036515;28;20586;-66
2024/01/20 04:50:07;;;;;;;4.82;4.32;;;0.40;99.90;;;;;;5018848;28;20103;-68
2024/01/20 04:52:32;;;;;;;4.20;3.80;;;0.10;99.90;;;;;;5018879;28;20071;-67
2024/01/20 04:54:58;;;;;;;4.95;4.30;;;0.20;99.90;;;;;;5018897;28;20091;-68
2024/01/20 04:57:24;;;;;;;4.50;4.10;;;0.10;99.90;;;;;;5018770;28;20115;-68
2024/01/20 04:59:49;;;;;;;4.82;4.38;;;0.10;99.90;;;;;;5018767;28;20037;-68
2024/01/20 05:02:15;;;;;;;5.63;4.35;;;0.10;99.90;;;;;;5018774;28;20120;-67
2024/01/20 05:04:41;;;;;;;4.55;4.15;;;0.10;99.90;;;;;;5018618;28;20045;-66
2024/01/20 05:07:06;;;;;;;4.38;3.97;;;0.00;99.90;;;;;;5036525;28;20126;-67
2024/01/20 05:09:32;;;;;;;4.85;4.43;;;0.00;99.90;;;;;;5036221;28;20048;-66
2024/01/20 05:11:57;;;;;;;5.30;4.80;;;-0.10;99.90;;;;;;5036566;28;20053;-67
2024/01/20 05:14:23;;;;;;;5.18;4.25;;;-0.10;99.90;;;;;;5018516;28;20068;-67
2024/01/20 05:16:49;;;;;;;7.78;4.80;;;-0.10;99.90;;;;;;5018420;28;20041;-67
2024/01/20 05:19:14;;;;;;;4.75;4.32;;;0.20;99.90;;;;;;5036356;28;20041;-67
2024/01/20 05:21:40;;;;;;;7.20;5.43;;;-0.10;99.90;;;;;;5036347;28;20370;-67
2024/01/20 05:24:05;;;;;;;4.60;4.20;;;-0.10;99.90;;;;;;5036135;28;20048;-67
2024/01/20 05:26:31;;;;;;;4.70;4.15;;;-0.10;99.90;;;;;;5018525;28;20037;-67
2024/01/20 05:28:57;;;;;;;4.50;4.10;;;-0.10;99.90;;;;;;5036012;28;20077;-67
2024/01/20 05:31:31;;;;;;;5.10;4.60;;;-0.10;99.90;;;;;;5036170;28;20080;-67
2024/01/20 05:33:59;;;;;;;5.53;5.03;;;-0.10;99.90;;;;;;5018154;28;20398;-67
2024/01/20 05:36:25;;;;;;;5.43;4.93;;;-0.10;99.90;;;;;;5018150;28;20049;-67
2024/01/20 05:38:51;;;;;;;4.72;4.32;;;-0.10;99.90;;;;;;5035984;28;20425;-67
2024/01/20 05:41:16;;;;;;;6.22;5.63;;;0.20;99.90;;;;;;5001640;28;20410;-66
2024/01/20 05:43:42;;;;;;;4.80;4.32;;;-0.10;99.90;;;;;;5036018;28;20040;-67
2024/01/20 05:46:08;;;;;;;5.20;4.70;;;-0.20;99.90;;;;;;5018072;28;20050;-66
2024/01/20 05:48:40;;;;;;;5.55;4.80;;;-0.20;99.90;;;;;;5001211;28;20057;-70
2024/01/20 05:51:06;;;;;;;5.80;5.20;;;-0.20;99.90;;;;;;5035380;28;20041;-69
2024/01/20 05:53:32;;;;;;;6.15;5.55;;;-0.20;99.90;;;;;;5035574;28;20512;-66
2024/01/20 05:55:57;;;;;;;5.95;4.70;;;-0.20;99.90;;;;;;5017724;28;20046;-66
2024/01/20 05:58:23;;;;;;;4.95;4.55;;;-0.20;99.90;;;;;;5001363;28;20045;-67
2024/01/20 06:00:49;;;;;;;5.60;5.10;;;-0.10;99.90;;;;;;5017818;28;20489;-67
2024/01/20 06:03:15;;;;;;;5.15;4.65;;;0.60;99.90;;;;;;5035366;28;20041;-66
2024/01/20 06:05:40;;;;;;;5.03;4.60;;;-0.10;99.90;;;;;;5017552;28;20045;-67
2024/01/20 06:08:06;;;;;;;6.20;5.57;;;-0.20;99.90;;;;;;5035456;28;20049;-67
2024/01/20 06:10:31;;;;;;;5.85;5.25;;;-0.20;99.90;;;;;;5035193;28;20037;-66
2024/01/20 06:12:57;;;;;;;5.95;5.45;;;-0.20;99.90;;;;;;5017653;28;20049;-67
2024/01/20 06:15:23;;;;;;;3.60;3.28;;;-0.20;99.90;;;;;;5035487;28;20040;-66
2024/01/20 06:17:48;;;;;;;5.90;5.32;;;-0.20;99.90;;;;;;5035094;28;20055;-66
2024/01/20 06:20:15;;;;;;;3.97;3.58;;;-0.20;99.90;;;;;;5035121;28;20538;-66
2024/01/20 06:22:41;;;;;;;4.97;4.55;;;-0.20;99.90;;;;;;5035272;28;20037;-67
2024/01/20 06:25:07;;;;;;;4.90;4.43;;;-0.20;99.90;;;;;;5034938;28;20037;-67
2024/01/20 06:27:33;;;;;;;5.95;5.15;;;-0.20;99.90;;;;;;5017045;28;20052;-68
2024/01/20 06:29:59;;;;;;;5.30;4.70;;;-0.20;99.90;;;;;;5016970;28;20037;-67
2024/01/20 06:32:25;;;;;;;6.88;5.57;;;-0.20;99.90;;;;;;5034850;28;20159;-66
2024/01/20 06:34:51;;;;;;;6.32;5.72;;;-0.20;99.90;;;;;;5035059;28;20489;-66
2024/01/20 06:37:16;;;;;;;5.75;5.15;;;-0.20;99.90;;;;;;5016930;28;20136;-67
2024/01/20 06:39:42;;;;;;;6.43;5.68;;;-0.20;99.90;;;;;;5035056;28;20034;-66
2024/01/20 06:42:10;;;;;;;5.82;5.30;;;-0.20;99.90;;;;;;5017070;28;20520;-65
2024/01/20 06:44:36;;;;;;;5.85;5.25;;;-0.20;99.90;;;;;;5034898;28;20033;-66
2024/01/20 06:47:02;;;;;;;6.50;5.85;;;-0.20;99.90;;;;;;5016609;28;20129;-60
2024/01/20 06:49:49;;;;;;;5.35;4.85;;;-0.30;99.90;;;;;;5034604;28;20061;-60
2024/01/20 06:52:15;;;;;;;5.05;4.40;;;-0.20;99.90;;;;;;5034666;28;20099;-60
2024/01/20 06:54:41;;;;;;;5.25;4.75;;;-0.30;99.90;;;;;;5034259;28;20128;-60
2024/01/20 06:57:06;;;;;;;5.53;4.88;;;-0.20;99.90;;;;;;5034622;28;20072;-60
2024/01/20 06:59:32;;;;;;;4.97;4.47;;;-0.20;99.90;;;;;;5034175;28;20561;-60
2024/01/20 07:01:58;;;;;;;4.88;4.43;;;-0.10;99.90;;;;;;5034060;28;20048;-60
2024/01/20 07:04:24;;;;;;;5.50;5.00;;;-0.10;99.90;;;;;;5015801;28;20077;-61
2024/01/20 07:06:50;;;;;;;5.70;5.20;;;-0.10;99.90;;;;;;5034440;28;20092;-66
2024/01/20 07:09:15;;;;;;;6.57;4.50;;;0.00;99.90;;;;;;5034373;28;20073;-66
2024/01/20 07:11:41;;;;;;;5.10;4.68;;;0.00;99.90;;;;;;5034300;28;20033;-67
2024/01/20 07:14:07;;;;;;;6.55;5.70;;;0.00;99.90;;;;;;5034305;28;20113;-67
2024/01/20 07:16:32;;;;;;;4.22;3.88;;;0.00;99.90;;;;;;5016383;28;20417;-65
2024/01/20 07:18:58;;;;;;;6.65;5.07;;;0.00;99.90;;;;;;5034073;28;20401;-65
2024/01/20 07:21:24;;;;;;;5.63;5.13;;;0.60;99.90;;;;;;5034052;28;20095;-65
2024/01/20 07:23:49;;;;;;;6.05;5.45;;;0.00;99.90;;;;;;5033989;28;20414;-65
2024/01/20 07:26:15;;;;;;;5.20;4.70;;;0.00;99.90;;;;;;5015364;28;20124;-65
2024/01/20 07:28:41;;;;;;;4.75;4.28;;;0.00;99.90;;;;;;5032803;28;20045;-67
2024/01/20 07:31:06;;;;;;;6.88;5.35;;;0.00;99.90;;;;;;5033109;28;20042;-66
2024/01/20 07:33:33;;;;;;;4.60;4.15;;;0.00;99.90;;;;;;5033072;28;20545;-66
2024/01/20 07:35:59;;;;;;;4.97;4.47;;;0.60;99.90;;;;;;5032963;28;20045;-66
2024/01/20 07:38:25;;;;;;;5.30;4.80;;;0.10;99.90;;;;;;5032461;28;20037;-66
2024/01/20 07:40:53;;;;;;;6.95;5.05;;;1.00;99.90;;;;;;5015062;28;20037;-65
2024/01/20 07:43:20;;;;;;;4.45;4.05;;;0.10;99.90;;;;;;5032744;28;20037;-65
2024/01/20 07:45:46;;;;;;;5.57;5.05;;;0.10;99.90;;;;;;5032739;28;20409;-65
2024/01/20 07:48:18;;;;;;;5.50;4.85;;;0.50;99.90;;;;;;5014370;28;20136;-65
2024/01/20 07:50:50;;;;;;;4.95;4.55;;;2.10;99.90;;;;;;5032450;28;20049;-65
2024/01/20 07:53:16;;;;;;;5.35;4.85;;;1.00;99.90;;;;;;5014649;28;20547;-65
2024/01/20 07:55:42;;;;;;;6.00;5.47;;;0.20;99.90;;;;;;5032579;28;20042;-65
2024/01/20 07:58:07;;;;;;;5.68;5.18;;;0.20;99.90;;;;;;5032191;28;20130;-65
2024/01/20 08:00:33;;;;;;;6.35;5.75;;;0.20;99.90;;;;;;5032510;28;20037;-65
2024/01/20 08:02:59;;;;;;;7.20;6.03;;;0.20;99.90;;;;;;5014496;28;20401;-65
2024/01/20 08:05:24;;;;;;;5.90;5.40;;;0.20;99.90;;;;;;5032230;28;20037;-66
2024/01/20 08:07:50;;;;;;;5.43;4.95;;;0.20;99.90;;;;;;5032148;28;20046;-65
2024/01/20 08:10:16;;;;;;;4.40;4.00;;;0.20;99.90;;;;;;5032089;28;20049;-65
2024/01/20 08:12:41;;;;;;;6.82;6.13;;;0.30;99.90;;;;;;5032432;28;20048;-65
2024/01/20 08:15:07;;;;;;;6.22;5.55;;;0.30;99.90;;;;;;5031432;28;20490;-66
2024/01/20 08:17:33;;;;;;;6.20;4.97;;;0.30;99.90;;;;;;5031964;28;20067;-66
2024/01/20 08:19:59;;;;;;;5.65;5.15;;;0.40;99.90;;;;;;5032014;28;20041;-66
2024/01/20 08:22:24;;;;;;;5.43;4.95;;;0.40;99.90;;;;;;5031971;28;20037;-65
2024/01/20 08:24:50;;;;;;;6.10;5.60;;;0.40;99.90;;;;;;5031906;28;20076;-65
2024/01/20 08:27:15;;;;;;;4.57;4.18;;;0.50;99.90;;;;;;5032429;28;20038;-66
2024/01/20 08:29:41;;;;;;;5.20;4.70;;;0.50;99.90;;;;;;5014447;28;20033;-66
2024/01/20 08:32:07;;;;;;;5.88;5.28;;;1.20;99.90;;;;;;5014447;28;20051;-67
2024/01/20 08:34:32;;;;;;;5.93;5.32;;;0.50;99.90;;;;;;5032282;28;20095;-67
2024/01/20 08:36:58;;;;;;;6.00;5.43;;;0.50;99.90;;;;;;5032127;28;20068;-66
2024/01/20 08:39:23;;;;;;;4.85;4.28;;;0.50;99.90;;;;;;5032151;28;20523;-68
2024/01/20 08:41:49;;;;;;;5.78;5.18;;;0.60;99.90;;;;;;5031807;28;20042;-67
2024/01/20 08:44:15;;;;;;;6.00;5.40;;;0.70;99.90;;;;;;5032154;28;20045;-67
2024/01/20 08:46:40;;;;;;;5.90;5.05;;;0.70;99.90;;;;;;5014361;28;20080;-67
2024/01/20 08:49:13;;;;;;;4.97;4.57;;;0.70;99.90;;;;;;4999358;28;20072;-66
2024/01/20 08:51:39;;;;;;;5.88;5.22;;;0.80;99.90;;;;;;5012059;28;20125;-67
2024/01/20 08:54:04;;;;;;;6.10;5.38;;;0.70;99.90;;;;;;5012059;28;20128;-65
2024/01/20 08:56:30;;;;;;;4.72;4.32;;;0.80;99.90;;;;;;5012077;28;20042;-67
2024/01/20 08:58:56;;;;;;;5.80;5.22;;;0.90;99.90;;;;;;4994197;28;20129;-68
2024/01/20 09:01:21;;;;;;;5.03;4.53;;;0.90;99.90;;;;;;5012243;28;20065;-68
2024/01/20 09:03:47;;;;;;;4.88;4.38;;;1.00;99.90;;;;;;5011874;28;20409;-68
2024/01/20 09:06:13;;;;;;;5.97;5.10;;;1.00;99.90;;;;;;5011793;28;20052;-67
2024/01/20 09:08:39;;;;;;;5.82;4.53;;;1.10;99.90;;;;;;5012047;28;20065;-67
2024/01/20 09:11:04;;;;;;;5.25;4.75;;;1.10;99.90;;;;;;4994476;28;20049;-66
2024/01/20 09:13:30;;;;;;;5.28;4.78;;;1.10;99.90;;;;;;5012081;28;20042;-69
2024/01/20 09:15:56;;;;;;;5.13;4.55;;;1.50;99.90;;;;;;4994086;28;20128;-61
2024/01/20 09:18:22;;;;;;;5.43;4.88;;;1.70;99.90;;;;;;5011522;28;20089;-63
2024/01/20 09:20:47;;;;;;;5.07;4.57;;;1.20;99.90;;;;;;5012014;28;20096;-63
2024/01/20 09:23:13;;;;;;;5.63;5.03;;;1.30;99.90;;;;;;5011838;28;20552;-64
2024/01/20 09:25:38;;;;;;;4.80;4.38;;;1.30;99.90;;;;;;5011827;28;20034;-64
2024/01/20 09:28:05;;;;;;;4.72;4.30;;;1.30;99.90;;;;;;5015354;28;20049;-60
2024/01/20 09:30:31;;;;;;;4.72;4.32;;;1.30;99.90;;;;;;5014939;28;20092;-60
2024/01/20 09:32:57;;;;;;;5.40;4.90;;;1.40;99.90;;;;;;4997436;28;20046;-60
2024/01/20 09:35:23;;;;;;;5.00;4.50;;;1.40;99.90;;;;;;5015017;28;20081;-60
2024/01/20 09:37:49;;;;;;;5.00;4.55;;;1.50;99.90;;;;;;5015239;28;20092;-69
2024/01/20 09:40:18;;;;;;;5.60;5.05;;;1.50;99.90;;;;;;5015032;28;20381;-65
2024/01/20 09:42:44;;;;;;;5.53;5.03;;;1.50;99.90;;;;;;4997271;28;20065;-69
2024/01/20 09:45:10;;;;;;;5.80;5.28;;;1.60;99.90;;;;;;5014704;28;20084;-67
2024/01/20 09:47:42;;;;;;;5.72;4.97;;;1.60;99.90;;;;;;4998892;28;20038;-67
2024/01/20 09:50:20;;;;;;;4.82;4.35;;;1.60;99.90;;;;;;5017824;28;20046;-68
2024/01/20 09:53:00;;;;;;;5.40;4.90;;;1.70;99.90;;;;;;5034819;28;20091;-66
2024/01/20 09:55:27;;;;;;;4.75;4.28;;;1.70;99.90;;;;;;5016548;28;20068;-68
2024/01/20 09:57:54;;;;;;;5.50;4.72;;;1.70;99.90;;;;;;5016758;28;20053;-67
2024/01/20 10:00:22;;;;;;;4.57;4.18;;;1.70;99.90;;;;;;5034327;28;20394;-68
2024/01/20 10:02:47;;;;;;;5.07;4.60;;;1.80;99.90;;;;;;5034705;28;20049;-68
2024/01/20 10:05:14;;;;;;;5.47;4.97;;;1.70;99.90;;;;;;5016942;28;20049;-70
2024/01/20 10:07:41;;;;;;;4.65;4.25;;;1.70;99.90;;;;;;5034667;28;20038;-70
2024/01/20 10:10:07;;;;;;;5.20;4.70;;;1.70;99.90;;;;;;5034113;28;20045;-70
2024/01/20 10:12:33;;;;;;;4.97;4.55;;;1.80;99.90;;;;;;5034312;28;20150;-69
2024/01/20 10:14:59;;;;;;;5.60;4.78;;;1.80;99.90;;;;;;5034498;28;20037;-68
2024/01/20 10:17:25;;;;;;;4.75;4.35;;;1.80;99.90;;;;;;5016634;28;20449;-68
2024/01/20 10:19:50;;;;;;;5.30;4.80;;;1.80;99.90;;;;;;5034182;28;20033;-69
2024/01/20 10:22:16;;;;;;;5.03;4.20;;;2.20;99.90;;;;;;5034388;28;20071;-67
2024/01/20 10:24:49;;;;;;;5.10;4.47;;;1.90;99.90;;;;;;5016420;28;20041;-69
2024/01/20 10:27:16;;;;;;;6.07;5.05;;;1.90;99.90;;;;;;5034066;28;20087;-70
2024/01/20 10:29:42;;;;;;;5.30;4.80;;;2.00;99.90;;;;;;5016701;28;20060;-72
2024/01/20 10:32:08;;;;;;;5.45;4.95;;;2.00;99.90;;;;;;4999961;28;20492;-68
2024/01/20 10:34:34;;;;;;;4.70;4.20;;;2.10;99.90;;;;;;5000056;28;20486;-69
2024/01/20 10:37:03;;;;;;;5.68;5.18;;;2.10;99.90;;;;;;5016196;28;20048;-69
2024/01/20 10:39:30;;;;;;;4.53;4.13;;;2.20;99.90;;;;;;5033214;28;20053;-69
2024/01/20 10:41:58;;;;;;;4.68;4.28;;;2.40;99.90;;;;;;5016068;28;20049;-69
2024/01/20 10:44:27;;;;;;;5.25;4.07;;;2.40;99.90;;;;;;5033843;28;20077;-70
2024/01/20 10:46:55;;;;;;;4.90;4.47;;;2.30;99.90;;;;;;5016109;28;20112;-59
2024/01/20 10:49:27;;;;;;;5.25;4.75;;;2.30;99.90;;;;;;5033249;28;20421;-59
2024/01/20 10:51:54;;;;;;;4.75;4.35;;;2.40;99.90;;;;;;5033856;28;20436;-60
2024/01/20 10:54:20;;;;;;;5.20;4.55;;;2.40;99.90;;;;;;5033879;28;20042;-61
2024/01/20 10:56:46;;;;;;;4.25;3.85;;;2.40;99.90;;;;;;5015817;28;20049;-60
2024/01/20 10:59:14;;;;;;;4.78;4.38;;;2.50;99.90;;;;;;5033559;28;20381;-60
2024/01/20 11:01:42;;;;;;;4.35;3.95;;;2.60;99.90;;;;;;5015813;28;20481;-60
2024/01/20 11:04:08;;;;;;;4.60;4.20;;;2.60;99.90;;;;;;5015644;28;20115;-61
2024/01/20 11:06:36;;;;;;;4.50;4.10;;;2.60;99.90;;;;;;5033227;28;20037;-60
2024/01/20 11:09:02;;;;;;;5.45;4.53;;;2.60;99.90;;;;;;5033127;28;20405;-60
2024/01/20 11:11:29;;;;;;;3.83;3.42;;;2.60;99.90;;;;;;5033366;28;20049;-60
2024/01/20 11:13:59;;;;;;;4.28;3.88;;;2.60;99.90;;;;;;5033448;28;20038;-65
2024/01/20 11:16:28;;;;;;;4.40;4.00;;;2.70;99.90;;;;;;5015565;28;20060;-60
2024/01/20 11:19:07;;;;;;;4.28;3.88;;;2.70;99.90;;;;;;5033178;28;20421;-60
2024/01/20 11:21:33;;;;;;;4.13;3.83;;;3.40;99.90;;;;;;5032948;28;20456;-59
2024/01/20 11:23:59;;;;;;;4.95;4.30;;;2.70;99.90;;;;;;5033151;28;20037;-60
2024/01/20 11:26:36;;;;;;;4.97;4.43;;;2.70;99.90;;;;;;5032802;28;20184;-60
2024/01/20 11:29:07;;;;;;;4.50;4.10;;;2.60;99.90;;;;;;5033077;28;20083;-60
2024/01/20 11:31:33;;;;;;;4.28;3.88;;;3.30;99.90;;;;;;5033075;28;20072;-60
2024/01/20 11:34:01;;;;;;;4.78;4.30;;;2.70;99.90;;;;;;5032963;28;20049;-60
2024/01/20 11:36:33;;;;;;;4.22;3.88;;;2.70;99.90;;;;;;5032847;28;20057;-59
2024/01/20 11:38:59;;;;;;;4.57;4.18;;;2.70;99.90;;;;;;5032601;28;20448;-59
2024/01/20 11:41:26;;;;;;;4.95;4.45;;;2.90;99.90;;;;;;5032925;28;20504;-60
2024/01/20 11:43:52;;;;;;;4.10;3.70;;;2.70;99.90;;;;;;5032440;28;20120;-59
2024/01/20 11:46:19;;;;;;;4.47;4.07;;;2.70;99.90;;;;;;5032770;28;20052;-60
2024/01/20 11:48:47;;;;;;;4.50;4.10;;;2.60;99.90;;;;;;5032010;28;20070;-59
2024/01/20 11:51:26;;;;;;;4.88;4.18;;;2.60;99.90;;;;;;5032524;28;20041;-62
2024/01/20 11:53:52;;;;;;;4.63;4.22;;;2.90;99.90;;;;;;5032675;28;20077;-62
2024/01/20 11:56:18;;;;;;;4.40;4.00;;;2.60;99.90;;;;;;5032440;28;20095;-62
2024/01/20 11:58:44;;;;;;;4.70;4.30;;;2.70;99.90;;;;;;5032532;28;20049;-68
2024/01/20 12:01:09;;;;;;;4.00;3.60;;;2.70;99.90;;;;;;5032567;28;20091;-69
2024/01/20 12:03:35;;;;;;;4.53;4.13;;;2.70;99.90;;;;;;5014812;28;20440;-70
2024/01/20 12:06:06;;;;;;;5.15;4.45;;;2.70;99.90;;;;;;5032492;28;20033;-70
2024/01/20 12:08:32;;;;;;;4.03;3.63;;;2.80;99.90;;;;;;5014456;28;20056;-69
2024/01/20 12:10:58;;;;;;;4.68;4.28;;;2.80;99.90;;;;;;5014628;28;20574;-68
2024/01/20 12:13:25;;;;;;;4.13;3.53;;;2.90;99.90;;;;;;5032429;28;20049;-69
2024/01/20 12:15:51;;;;;;;4.18;3.53;;;2.90;99.90;;;;;;5032356;28;20045;-69
2024/01/20 12:18:17;;;;;;;4.82;4.30;;;2.90;99.90;;;;;;5032274;28;20445;-70
2024/01/20 12:20:44;;;;;;;3.75;3.45;;;3.00;99.90;;;;;;5032332;28;20041;-69
2024/01/20 12:23:09;;;;;;;4.63;4.25;;;3.00;99.90;;;;;;5032201;28;20040;-72
2024/01/20 12:25:35;;;;;;;4.53;4.13;;;3.00;99.90;;;;;;5031910;28;20039;-69
2024/01/20 12:28:01;;;;;;;4.78;4.20;;;3.00;99.90;;;;;;5031884;28;20041;-70
2024/01/20 12:30:28;;;;;;;4.50;4.10;;;3.00;99.90;;;;;;5031803;28;20084;-69
2024/01/20 12:32:56;;;;;;;4.47;4.00;;;3.00;99.90;;;;;;5031766;28;20052;-69
2024/01/20 12:35:22;;;;;;;3.83;3.53;;;3.00;99.90;;;;;;5031910;28;20562;-69
2024/01/20 12:37:48;;;;;;;3.88;3.55;;;2.90;99.90;;;;;;5014006;28;20413;-69
2024/01/20 12:40:15;;;;;;;5.03;4.53;;;2.90;99.90;;;;;;5032124;28;20045;-70
2024/01/20 12:42:41;;;;;;;5.45;3.85;;;2.90;99.90;;;;;;5014116;28;20046;-70
2024/01/20 12:45:09;;;;;;;4.30;3.90;;;2.80;99.90;;;;;;5014019;28;20065;-70
2024/01/20 12:47:34;;;;;;;5.15;4.72;;;2.80;99.90;;;;;;5032005;28;20045;-69
2024/01/20 12:50:07;;;;;;;4.30;3.90;;;2.70;99.90;;;;;;5031334;28;20076;-70
2024/01/20 12:52:33;;;;;;;4.22;3.83;;;2.70;99.90;;;;;;5013977;28;20081;-69